Time;durP1;ratioP1;P1;durP2;ratioP2;P2;SDS_P1;SDS_P2;PMS_P1;PMS_P2;Temp;Humidity;BMP_temperature;BMP_pressure;BME280_temperature;BME280_humidity;BME280_pressure;Samples;Min_cycle;Max_cycle;Signal;HPM_P1;HPM_P2
2023/05/03 00:00:40;;;;;;;4.03;1.42;;;10.00;83.30;;;;;;4967679;28;20030;-71
2023/05/03 00:03:05;;;;;;;6.40;1.63;;;10.00;83.50;;;;;;4970875;28;20036;-71
2023/05/03 00:05:31;;;;;;;3.53;1.58;;;10.00;83.60;;;;;;4971494;28;20034;-70
2023/05/03 00:07:58;;;;;;;2.95;1.60;;;9.90;82.90;;;;;;4967635;28;20133;-70
2023/05/03 00:10:24;;;;;;;6.70;1.92;;;9.90;83.50;;;;;;4962220;28;20639;-70
2023/05/03 00:12:50;;;;;;;3.85;1.67;;;9.80;84.20;;;;;;4966963;28;20847;-70
2023/05/03 00:15:16;;;;;;;3.83;1.63;;;9.80;83.40;;;;;;4970096;28;20041;-70
2023/05/03 00:17:42;;;;;;;5.85;1.52;;;9.70;83.50;;;;;;4968483;28;20058;-70
2023/05/03 00:20:08;;;;;;;2.25;1.42;;;9.70;84.00;;;;;;4971267;28;20294;-70
2023/05/03 00:22:35;;;;;;;3.78;1.40;;;9.60;83.30;;;;;;4975184;28;20066;-69
2023/05/03 00:25:01;;;;;;;2.95;1.50;;;9.60;84.20;;;;;;4966522;28;20034;-70
2023/05/03 00:27:27;;;;;;;2.75;1.60;;;9.50;84.00;;;;;;4969561;28;20037;-70
2023/05/03 00:29:52;;;;;;;4.13;1.70;;;9.40;85.20;;;;;;4969609;28;20042;-70
2023/05/03 00:32:20;;;;;;;2.65;1.45;;;9.40;85.70;;;;;;4968509;28;20798;-70
2023/05/03 00:34:46;;;;;;;1.80;1.40;;;9.40;85.90;;;;;;4967228;28;20126;-70
2023/05/03 00:37:11;;;;;;;5.53;1.75;;;9.20;85.90;;;;;;4970940;28;20692;-70
2023/05/03 00:39:37;;;;;;;1.98;1.45;;;9.10;86.00;;;;;;4972560;28;20520;-70
2023/05/03 00:42:03;;;;;;;4.43;1.60;;;9.10;86.40;;;;;;4968962;28;20028;-70
2023/05/03 00:44:29;;;;;;;5.60;1.95;;;9.00;86.30;;;;;;4971972;28;20030;-70
2023/05/03 00:46:56;;;;;;;3.70;1.55;;;8.90;86.40;;;;;;4958705;28;20045;-70
2023/05/03 00:49:25;;;;;;;4.03;1.52;;;8.80;87.00;;;;;;4971302;28;20085;-70
2023/05/03 00:51:53;;;;;;;2.38;1.38;;;8.70;87.30;;;;;;4967542;28;20050;-70
2023/05/03 00:54:20;;;;;;;3.33;1.80;;;8.60;87.80;;;;;;4967354;28;20034;-70
2023/05/03 00:56:46;;;;;;;5.50;1.70;;;8.60;88.20;;;;;;4969028;28;20121;-70
2023/05/03 00:59:12;;;;;;;3.45;1.65;;;8.50;88.50;;;;;;4965835;28;20496;-70
2023/05/03 01:01:38;;;;;;;2.78;1.58;;;8.40;88.70;;;;;;4969299;28;20035;-70
2023/05/03 01:04:05;;;;;;;2.22;1.60;;;8.40;89.30;;;;;;4968076;28;20067;-70
2023/05/03 01:06:37;;;;;;;2.20;1.38;;;8.30;89.30;;;;;;4968152;28;20100;-70
2023/05/03 01:09:18;;;;;;;2.63;1.52;;;8.20;89.40;;;;;;4964869;28;20065;-70
2023/05/03 01:11:59;;;;;;;3.28;1.60;;;8.10;89.90;;;;;;4964150;28;20030;-69
2023/05/03 01:15:12;;;;;;;5.22;1.60;;;8.00;90.10;;;;;;4962940;28;20026;-69
2023/05/03 01:17:47;;;;;;;3.25;1.60;;;8.00;90.30;;;;;;4980259;28;20046;-70
2023/05/03 01:20:16;;;;;;;5.68;1.83;;;7.90;90.50;;;;;;4954293;28;20034;-70
2023/05/03 01:22:57;;;;;;;4.03;1.70;;;7.90;90.80;;;;;;4970535;28;20033;-70
2023/05/03 01:25:24;;;;;;;5.85;2.08;;;7.80;91.00;;;;;;4953282;28;20058;-69
2023/05/03 01:27:49;;;;;;;4.63;1.80;;;7.70;91.10;;;;;;4968988;28;20235;-69
2023/05/03 01:30:16;;;;;;;4.60;1.77;;;7.60;91.40;;;;;;4971924;28;20573;-70
2023/05/03 01:33:09;;;;;;;4.85;2.13;;;7.60;91.80;;;;;;4965716;28;20113;-70
2023/05/03 01:35:42;;;;;;;6.65;1.60;;;7.50;92.00;;;;;;4967080;28;20509;-69
2023/05/03 01:38:10;;;;;;;4.10;2.03;;;7.50;92.30;;;;;;4962084;28;20037;-69
2023/05/03 01:40:42;;;;;;;3.00;1.70;;;7.40;92.50;;;;;;4964020;28;20027;-70
2023/05/03 01:43:10;;;;;;;2.63;1.60;;;7.40;92.60;;;;;;4962736;28;20034;-69
2023/05/03 01:45:36;;;;;;;4.90;1.75;;;7.30;92.80;;;;;;4962369;28;20058;-70
2023/05/03 01:48:12;;;;;;;3.95;1.83;;;7.30;93.00;;;;;;4965820;28;20129;-70
2023/05/03 01:50:37;;;;;;;4.57;1.77;;;7.20;93.10;;;;;;4960789;28;20078;-70
2023/05/03 01:53:03;;;;;;;3.33;1.65;;;7.20;93.40;;;;;;4962588;28;20043;-69
2023/05/03 01:55:29;;;;;;;3.72;1.65;;;7.20;93.50;;;;;;4966342;28;20054;-70
2023/05/03 01:57:55;;;;;;;2.85;1.70;;;7.10;93.70;;;;;;4962080;28;20086;-69
2023/05/03 02:00:21;;;;;;;5.03;1.65;;;7.10;93.90;;;;;;4972887;28;20129;-70
2023/05/03 02:02:47;;;;;;;5.72;1.75;;;7.00;94.10;;;;;;4967812;28;20133;-71
2023/05/03 02:05:12;;;;;;;5.30;1.98;;;7.00;94.20;;;;;;4966834;28;20038;-69
2023/05/03 02:07:38;;;;;;;2.15;1.70;;;7.00;94.30;;;;;;4964907;28;20084;-69
2023/05/03 02:10:05;;;;;;;5.13;1.70;;;6.90;94.40;;;;;;4967318;28;20206;-69
2023/05/03 02:12:31;;;;;;;3.45;1.70;;;6.90;94.70;;;;;;4966453;28;20442;-69
2023/05/03 02:14:57;;;;;;;5.53;1.60;;;6.80;94.90;;;;;;4965493;28;20034;-70
2023/05/03 02:17:25;;;;;;;6.10;2.47;;;6.80;94.90;;;;;;4961504;28;20990;-69
2023/05/03 02:19:51;;;;;;;3.25;1.77;;;6.80;95.00;;;;;;4966632;28;20038;-70
2023/05/03 02:22:17;;;;;;;2.65;1.63;;;6.80;95.20;;;;;;4962020;28;20054;-69
2023/05/03 02:24:43;;;;;;;9.13;2.00;;;6.70;95.20;;;;;;4961734;28;20145;-69
2023/05/03 02:27:09;;;;;;;4.68;1.60;;;6.70;95.40;;;;;;4969149;28;20030;-69
2023/05/03 02:29:36;;;;;;;3.63;1.80;;;6.70;95.60;;;;;;4951723;28;20182;-70
2023/05/03 02:32:04;;;;;;;6.38;1.75;;;6.70;95.70;;;;;;4967214;28;20088;-69
2023/05/03 02:34:31;;;;;;;3.90;1.83;;;6.60;95.70;;;;;;4969082;28;20654;-68
2023/05/03 02:36:58;;;;;;;3.72;1.80;;;6.60;95.70;;;;;;4962503;28;20050;-70
2023/05/03 02:39:23;;;;;;;7.13;2.17;;;6.60;95.80;;;;;;4964149;28;20568;-69
2023/05/03 02:41:50;;;;;;;8.07;1.90;;;6.60;95.90;;;;;;4970178;28;20030;-70
2023/05/03 02:44:16;;;;;;;4.32;1.88;;;6.50;96.00;;;;;;4953610;28;20033;-68
2023/05/03 02:46:41;;;;;;;3.22;1.73;;;6.50;96.10;;;;;;4962947;28;20043;-68
2023/05/03 02:49:08;;;;;;;4.68;2.20;;;6.50;96.20;;;;;;4964808;28;20035;-69
2023/05/03 02:51:35;;;;;;;5.45;1.80;;;6.50;96.20;;;;;;4969593;28;20069;-69
2023/05/03 02:54:01;;;;;;;5.07;1.90;;;6.50;96.30;;;;;;4968078;28;20049;-69
2023/05/03 02:56:27;;;;;;;6.10;1.92;;;6.40;96.40;;;;;;4970713;28;20038;-69
2023/05/03 02:58:53;;;;;;;4.85;1.85;;;6.40;96.40;;;;;;4968950;28;20035;-69
2023/05/03 03:01:20;;;;;;;6.07;2.17;;;6.40;96.40;;;;;;4961110;28;20050;-69
2023/05/03 03:03:47;;;;;;;2.58;1.75;;;6.40;96.40;;;;;;4972454;28;20022;-69
2023/05/03 03:06:13;;;;;;;5.80;2.20;;;6.30;96.50;;;;;;4962079;28;20042;-69
2023/05/03 03:08:39;;;;;;;3.30;2.03;;;6.30;96.40;;;;;;4971101;28;20057;-69
2023/05/03 03:11:06;;;;;;;3.97;1.75;;;6.30;96.60;;;;;;4973748;28;20085;-69
2023/05/03 03:13:32;;;;;;;2.30;1.77;;;6.30;96.50;;;;;;4970658;28;20413;-69
2023/05/03 03:15:59;;;;;;;4.53;2.15;;;6.30;96.60;;;;;;4970100;28;20041;-69
2023/05/03 03:18:25;;;;;;;4.07;1.73;;;6.20;96.70;;;;;;4964556;28;20023;-69
2023/05/03 03:20:51;;;;;;;4.88;2.10;;;6.20;96.90;;;;;;4978098;28;20031;-69
2023/05/03 03:23:18;;;;;;;8.23;1.75;;;6.20;97.00;;;;;;4969499;28;20161;-69
2023/05/03 03:25:44;;;;;;;5.55;2.28;;;6.10;97.00;;;;;;4969385;28;20824;-69
2023/05/03 03:28:10;;;;;;;2.28;1.48;;;6.10;97.00;;;;;;4965688;28;20035;-69
2023/05/03 03:30:36;;;;;;;3.38;1.80;;;6.10;96.90;;;;;;4966288;28;20739;-69
2023/05/03 03:33:13;;;;;;;3.50;1.77;;;6.10;96.90;;;;;;4964833;28;20031;-69
2023/05/03 03:35:40;;;;;;;2.10;1.52;;;6.10;96.80;;;;;;4965951;28;20173;-69
2023/05/03 03:38:07;;;;;;;5.90;1.70;;;6.10;96.90;;;;;;4960956;28;20192;-69
2023/05/03 03:40:37;;;;;;;3.15;1.55;;;6.10;97.00;;;;;;4968127;28;20061;-69
2023/05/03 03:43:04;;;;;;;6.43;2.10;;;6.10;96.90;;;;;;4969497;28;20114;-69
2023/05/03 03:45:30;;;;;;;9.45;1.75;;;6.10;97.00;;;;;;4965435;28;20113;-69
2023/05/03 03:47:57;;;;;;;6.72;2.92;;;6.10;97.00;;;;;;4968151;28;20038;-69
2023/05/03 03:50:24;;;;;;;4.50;1.45;;;6.10;97.00;;;;;;4958656;28;20031;-69
2023/05/03 03:52:50;;;;;;;4.13;1.85;;;6.10;97.10;;;;;;4969167;28;20126;-69
2023/05/03 03:55:16;;;;;;;5.25;1.92;;;6.10;97.10;;;;;;4961761;28;20035;-68
2023/05/03 03:57:46;;;;;;;5.15;1.60;;;6.10;97.10;;;;;;4962054;28;20114;-69
2023/05/03 04:00:13;;;;;;;2.97;1.77;;;6.10;97.20;;;;;;4959277;28;20097;-69
2023/05/03 04:02:44;;;;;;;7.95;2.20;;;6.10;97.20;;;;;;4964539;28;20022;-69
2023/05/03 04:05:16;;;;;;;7.97;1.80;;;6.10;97.20;;;;;;4969801;28;20080;-69
2023/05/03 04:07:43;;;;;;;4.63;1.85;;;6.10;97.30;;;;;;4976311;28;20058;-69
2023/05/03 04:10:10;;;;;;;5.82;2.28;;;6.10;97.30;;;;;;4957644;28;20035;-69
2023/05/03 04:12:38;;;;;;;3.65;1.85;;;6.10;97.50;;;;;;4955210;28;20035;-69
2023/05/03 04:15:05;;;;;;;3.78;1.65;;;6.10;97.60;;;;;;4965150;28;20041;-69
2023/05/03 04:17:33;;;;;;;4.20;1.95;;;6.10;97.60;;;;;;4963090;28;20035;-69
2023/05/03 04:20:12;;;;;;;4.57;1.70;;;6.10;97.60;;;;;;4958270;28;20045;-69
2023/05/03 04:22:40;;;;;;;2.80;1.65;;;6.10;97.70;;;;;;4959588;28;20027;-69
2023/05/03 04:25:12;;;;;;;5.78;2.03;;;6.10;97.80;;;;;;4963357;28;20046;-68
2023/05/03 04:27:39;;;;;;;3.35;1.88;;;6.10;97.90;;;;;;4964451;28;20030;-69
2023/05/03 04:30:06;;;;;;;3.55;2.00;;;6.10;98.00;;;;;;4962325;28;20033;-69
2023/05/03 04:32:36;;;;;;;3.42;2.03;;;6.20;98.10;;;;;;4961249;28;20118;-69
2023/05/03 04:35:08;;;;;;;5.13;2.28;;;6.20;98.20;;;;;;4963321;28;20046;-69
2023/05/03 04:37:38;;;;;;;3.65;2.10;;;6.20;98.30;;;;;;4961149;28;20058;-69
2023/05/03 04:40:07;;;;;;;6.65;2.55;;;6.30;98.40;;;;;;4959629;28;20085;-69
2023/05/03 04:42:37;;;;;;;4.88;2.20;;;6.30;98.60;;;;;;4967430;28;20102;-69
2023/05/03 04:45:05;;;;;;;3.70;1.80;;;6.30;98.50;;;;;;4961511;28;20330;-69
2023/05/03 04:47:32;;;;;;;4.53;1.98;;;6.30;98.50;;;;;;4965608;28;20037;-69
2023/05/03 04:49:58;;;;;;;3.05;2.05;;;6.40;98.50;;;;;;4963060;28;20781;-69
2023/05/03 04:52:25;;;;;;;5.38;2.28;;;6.40;98.50;;;;;;4962726;28;20035;-69
2023/05/03 04:54:53;;;;;;;10.75;2.53;;;6.50;98.50;;;;;;4966440;28;20836;-69
2023/05/03 04:57:19;;;;;;;3.70;1.90;;;6.50;98.60;;;;;;4962888;28;20031;-69
2023/05/03 04:59:45;;;;;;;3.45;2.30;;;6.60;98.70;;;;;;4959328;28;20037;-69
2023/05/03 05:02:12;;;;;;;5.25;2.03;;;6.60;98.80;;;;;;4959653;28;20027;-68
2023/05/03 05:04:37;;;;;;;4.90;2.40;;;6.70;98.80;;;;;;4962182;28;20545;-69
2023/05/03 05:07:03;;;;;;;3.53;1.98;;;6.70;99.00;;;;;;4965353;28;20112;-69
2023/05/03 05:09:31;;;;;;;2.60;2.00;;;6.90;99.00;;;;;;4967268;28;20030;-69
2023/05/03 05:12:00;;;;;;;5.45;2.45;;;6.90;98.80;;;;;;4966109;28;20034;-69
2023/05/03 05:14:32;;;;;;;5.82;2.55;;;7.00;98.70;;;;;;4964444;28;20529;-69
2023/05/03 05:16:58;;;;;;;3.63;1.80;;;7.20;98.80;;;;;;4962862;28;20034;-69
2023/05/03 05:19:25;;;;;;;7.40;2.85;;;7.30;98.70;;;;;;4959446;28;20491;-69
2023/05/03 05:21:51;;;;;;;6.28;2.33;;;7.50;98.50;;;;;;4961499;28;20035;-69
2023/05/03 05:24:18;;;;;;;8.07;2.33;;;7.70;98.20;;;;;;4960862;28;20027;-69
2023/05/03 05:26:44;;;;;;;6.13;2.00;;;7.80;97.60;;;;;;4962154;28;20054;-69
2023/05/03 05:29:12;;;;;;;6.53;2.10;;;8.00;97.20;;;;;;4964020;28;20055;-69
2023/05/03 05:31:38;;;;;;;2.70;1.70;;;8.20;96.90;;;;;;4970846;28;20224;-69
2023/05/03 05:34:06;;;;;;;3.90;2.00;;;8.60;96.00;;;;;;4961999;28;20030;-69
2023/05/03 05:36:32;;;;;;;5.40;1.85;;;9.10;95.00;;;;;;4963421;28;20034;-69
2023/05/03 05:38:59;;;;;;;5.47;1.90;;;9.70;92.90;;;;;;4959680;28;20537;-69
2023/05/03 05:41:25;;;;;;;2.63;1.70;;;10.20;91.90;;;;;;4967584;28;20058;-69
2023/05/03 05:43:51;;;;;;;4.40;1.60;;;10.80;91.30;;;;;;4957492;28;20460;-69
2023/05/03 05:46:19;;;;;;;4.45;1.73;;;11.30;88.40;;;;;;4964983;28;20037;-69
2023/05/03 05:48:46;;;;;;;3.90;1.73;;;11.70;86.80;;;;;;4964889;28;20033;-69
2023/05/03 05:51:12;;;;;;;6.38;1.55;;;12.10;85.40;;;;;;4960357;28;20034;-69
2023/05/03 05:53:37;;;;;;;4.65;1.50;;;12.50;84.00;;;;;;4957632;28;20130;-69
2023/05/03 05:56:05;;;;;;;8.88;1.40;;;12.90;81.80;;;;;;4963409;28;20066;-69
2023/05/03 05:58:32;;;;;;;2.72;1.40;;;13.30;78.00;;;;;;4961534;28;20027;-69
2023/05/03 06:01:00;;;;;;;5.20;1.42;;;13.50;74.10;;;;;;4968163;28;20042;-70
2023/05/03 06:03:28;;;;;;;5.60;1.42;;;13.60;73.70;;;;;;4961715;28;20058;-69
2023/05/03 06:05:54;;;;;;;6.15;1.45;;;13.70;71.70;;;;;;4963691;28;20130;-70
2023/05/03 06:08:20;;;;;;;7.80;1.45;;;13.90;71.10;;;;;;4960402;28;20737;-69
2023/05/03 06:10:46;;;;;;;4.05;1.55;;;14.20;68.40;;;;;;4968474;28;20030;-70
2023/05/03 06:13:11;;;;;;;2.90;1.33;;;14.40;67.60;;;;;;4959465;28;20145;-70
2023/05/03 06:15:37;;;;;;;5.72;1.35;;;14.60;68.20;;;;;;4967862;28;20526;-70
2023/05/03 06:18:03;;;;;;;4.70;1.42;;;15.00;66.60;;;;;;4962431;28;20149;-70
2023/05/03 06:20:29;;;;;;;5.35;1.35;;;15.40;64.70;;;;;;4960578;28;20756;-70
2023/05/03 06:22:56;;;;;;;3.92;1.30;;;15.60;63.60;;;;;;4960441;28;20843;-70
2023/05/03 06:25:22;;;;;;;7.97;1.67;;;15.60;62.40;;;;;;4970687;28;20041;-70
2023/05/03 06:27:49;;;;;;;4.28;1.30;;;15.30;62.60;;;;;;4965658;28;20811;-70
2023/05/03 06:30:18;;;;;;;5.88;1.67;;;15.10;63.30;;;;;;4969844;28;20051;-70
2023/05/03 06:32:46;;;;;;;8.00;2.30;;;14.90;63.50;;;;;;4968215;28;20746;-69
2023/05/03 06:35:12;;;;;;;9.52;1.52;;;14.80;64.70;;;;;;4969258;28;20035;-69
2023/05/03 06:37:39;;;;;;;6.43;1.70;;;15.00;63.60;;;;;;4965809;28;20178;-69
2023/05/03 06:40:06;;;;;;;6.35;2.00;;;15.40;63.80;;;;;;4968660;28;20041;-69
2023/05/03 06:42:32;;;;;;;5.70;1.00;;;16.00;61.70;;;;;;4967735;28;20361;-69
2023/05/03 06:45:11;;;;;;;8.43;1.55;;;16.40;59.20;;;;;;4969139;28;20030;-69
2023/05/03 06:47:38;;;;;;;4.68;1.20;;;16.60;58.40;;;;;;4965289;28;20030;-69
2023/05/03 06:50:05;;;;;;;4.72;1.05;;;16.70;57.20;;;;;;4968554;28;20354;-69
2023/05/03 06:52:31;;;;;;;6.55;1.33;;;16.90;56.40;;;;;;4968573;28;20034;-69
2023/05/03 06:54:56;;;;;;;4.57;1.40;;;16.70;56.00;;;;;;4965785;28;20038;-69
2023/05/03 06:57:22;;;;;;;3.83;0.88;;;16.50;57.70;;;;;;4973359;28;20034;-70
2023/05/03 06:59:48;;;;;;;3.38;0.95;;;16.30;57.50;;;;;;4970110;28;20062;-69
2023/05/03 07:02:14;;;;;;;4.65;1.10;;;16.20;57.40;;;;;;4975797;28;20038;-69
2023/05/03 07:04:39;;;;;;;6.78;1.25;;;16.10;57.50;;;;;;4965848;28;20039;-69
2023/05/03 07:07:05;;;;;;;5.30;1.55;;;16.10;56.30;;;;;;4967934;28;20053;-69
2023/05/03 07:09:31;;;;;;;6.88;1.30;;;16.30;56.60;;;;;;4969462;28;20372;-69
2023/05/03 07:11:57;;;;;;;5.20;1.55;;;16.50;56.70;;;;;;4967488;28;20041;-67
2023/05/03 07:14:23;;;;;;;6.20;1.33;;;16.40;55.10;;;;;;4970691;28;20146;-69
2023/05/03 07:16:49;;;;;;;3.33;0.88;;;16.20;54.60;;;;;;4971632;28;20062;-69
2023/05/03 07:19:14;;;;;;;5.93;1.40;;;16.00;55.80;;;;;;4966842;28;20034;-68
2023/05/03 07:21:40;;;;;;;5.68;1.42;;;15.80;57.00;;;;;;4973903;28;20038;-69
2023/05/03 07:24:06;;;;;;;3.90;1.40;;;15.60;57.10;;;;;;4975107;28;20034;-69
2023/05/03 07:26:33;;;;;;;5.45;1.42;;;15.50;57.60;;;;;;4971496;28;20033;-70
2023/05/03 07:28:59;;;;;;;2.25;1.20;;;15.50;57.70;;;;;;4973845;28;20042;-70
2023/05/03 07:31:25;;;;;;;5.03;1.33;;;15.50;58.20;;;;;;4972680;28;20121;-70
2023/05/03 07:33:51;;;;;;;6.10;1.67;;;15.60;59.70;;;;;;4969105;28;20121;-70
2023/05/03 07:36:17;;;;;;;4.95;1.35;;;15.70;58.70;;;;;;4966860;28;20928;-70
2023/05/03 07:38:42;;;;;;;5.45;1.60;;;15.80;55.90;;;;;;4968434;28;20019;-70
2023/05/03 07:41:09;;;;;;;6.15;1.55;;;15.90;56.20;;;;;;4968394;28;20026;-71
2023/05/03 07:43:35;;;;;;;7.63;1.40;;;16.10;56.50;;;;;;4963306;28;20029;-70
2023/05/03 07:46:00;;;;;;;5.53;1.70;;;15.90;58.00;;;;;;4968759;28;20056;-70
2023/05/03 07:48:26;;;;;;;2.65;1.05;;;16.00;56.90;;;;;;4962139;28;20817;-70
2023/05/03 07:50:52;;;;;;;4.05;1.23;;;16.30;54.40;;;;;;4970072;28;20062;-71
2023/05/03 07:53:18;;;;;;;5.95;1.55;;;16.60;55.50;;;;;;4962330;28;20775;-71
2023/05/03 07:55:44;;;;;;;4.22;1.20;;;16.90;55.80;;;;;;4958559;28;20112;-70
2023/05/03 07:58:10;;;;;;;5.05;1.10;;;16.80;54.40;;;;;;4958929;28;20034;-71
2023/05/03 08:00:36;;;;;;;2.65;1.25;;;16.50;55.30;;;;;;4957166;28;20793;-71
2023/05/03 08:03:04;;;;;;;7.78;1.35;;;16.10;55.30;;;;;;4960662;28;20026;-70
2023/05/03 08:05:30;;;;;;;4.47;1.30;;;15.80;55.70;;;;;;4965267;28;20073;-71
2023/05/03 08:07:56;;;;;;;4.03;1.70;;;15.80;57.60;;;;;;4969572;28;20133;-71
2023/05/03 08:10:22;;;;;;;7.53;1.58;;;16.00;56.60;;;;;;4970087;28;20117;-71
2023/05/03 08:12:47;;;;;;;3.85;1.20;;;16.40;55.70;;;;;;4969007;28;20085;-71
2023/05/03 08:15:13;;;;;;;4.50;1.77;;;16.80;54.10;;;;;;4962343;28;20042;-70
2023/05/03 08:17:44;;;;;;;7.00;1.40;;;16.90;53.10;;;;;;4960517;28;20027;-70
2023/05/03 08:20:11;;;;;;;6.35;1.55;;;16.70;53.50;;;;;;4971883;28;20484;-71
2023/05/03 08:22:40;;;;;;;4.68;1.40;;;16.30;54.40;;;;;;4966537;28;20109;-72
2023/05/03 08:25:06;;;;;;;2.60;1.17;;;16.00;57.00;;;;;;4966990;28;20062;-72
2023/05/03 08:27:32;;;;;;;5.93;1.95;;;15.90;55.30;;;;;;4959966;28;20550;-72
2023/05/03 08:30:02;;;;;;;5.80;1.70;;;16.00;57.30;;;;;;4966483;28;20058;-72
2023/05/03 08:32:29;;;;;;;2.90;1.58;;;16.10;56.50;;;;;;4963803;28;20414;-72
2023/05/03 08:34:55;;;;;;;6.13;1.23;;;16.30;54.70;;;;;;4963147;28;20616;-72
2023/05/03 08:37:22;;;;;;;5.00;1.35;;;16.40;54.50;;;;;;4960968;28;20038;-71
2023/05/03 08:39:48;;;;;;;2.72;1.05;;;16.40;54.60;;;;;;4967535;28;20058;-70
2023/05/03 08:42:13;;;;;;;4.88;1.50;;;16.30;55.10;;;;;;4962185;28;20135;-72
2023/05/03 08:44:47;;;;;;;5.68;1.48;;;16.20;54.70;;;;;;4961358;28;20035;-71
2023/05/03 08:47:15;;;;;;;5.65;1.30;;;16.00;54.40;;;;;;4969578;28;20045;-72
2023/05/03 08:49:42;;;;;;;6.85;1.40;;;16.00;55.40;;;;;;4969697;28;20030;-71
2023/05/03 08:52:12;;;;;;;6.28;1.80;;;16.10;55.00;;;;;;4967314;28;20053;-72
2023/05/03 08:54:38;;;;;;;8.00;1.50;;;16.30;56.30;;;;;;4961807;28;20038;-71
2023/05/03 08:57:13;;;;;;;5.22;1.40;;;16.80;54.90;;;;;;4962174;28;20038;-71
2023/05/03 08:59:49;;;;;;;8.43;1.67;;;17.40;54.00;;;;;;4967179;28;20042;-71
2023/05/03 09:02:16;;;;;;;4.82;1.25;;;18.00;51.40;;;;;;4965135;28;20779;-71
2023/05/03 09:04:42;;;;;;;4.20;1.48;;;18.00;50.40;;;;;;4970540;28;20030;-71
2023/05/03 09:07:11;;;;;;;3.78;1.08;;;17.90;51.00;;;;;;4965003;28;20049;-71
2023/05/03 09:09:37;;;;;;;7.63;1.55;;;17.80;52.80;;;;;;4965362;28;20502;-70
2023/05/03 09:12:04;;;;;;;4.70;1.15;;;18.00;51.30;;;;;;4973271;28;20038;-71
2023/05/03 09:14:40;;;;;;;4.53;1.20;;;18.30;51.90;;;;;;4965402;28;20027;-70
2023/05/03 09:17:18;;;;;;;4.53;1.50;;;18.60;49.30;;;;;;4964921;28;20043;-72
2023/05/03 09:19:54;;;;;;;5.50;1.23;;;18.90;49.90;;;;;;4957979;28;20038;-71
2023/05/03 09:22:24;;;;;;;5.15;1.65;;;19.20;51.30;;;;;;4968526;28;20049;-72
2023/05/03 09:24:54;;;;;;;5.30;1.40;;;19.60;49.80;;;;;;4971489;28;20903;-72
2023/05/03 09:27:20;;;;;;;7.65;1.67;;;20.00;50.20;;;;;;4968161;28;20022;-72
2023/05/03 09:29:47;;;;;;;5.93;1.50;;;19.90;47.20;;;;;;4965940;28;20026;-71
2023/05/03 09:32:13;;;;;;;7.75;1.60;;;19.60;48.20;;;;;;4969190;28;20041;-68
2023/05/03 09:34:39;;;;;;;3.95;1.33;;;19.10;49.40;;;;;;4966624;28;20030;-69
2023/05/03 09:37:05;;;;;;;5.30;1.70;;;18.40;49.50;;;;;;4970520;28;20502;-70
2023/05/03 09:39:32;;;;;;;8.18;1.50;;;18.00;52.70;;;;;;4968220;28;20041;-70
2023/05/03 09:41:59;;;;;;;2.67;1.20;;;18.20;53.40;;;;;;4960326;28;20062;-70
2023/05/03 09:44:50;;;;;;;6.20;1.55;;;18.60;51.30;;;;;;4966796;28;20144;-67
2023/05/03 09:47:17;;;;;;;4.57;1.42;;;18.50;51.40;;;;;;4969617;28;20461;-69
2023/05/03 09:49:43;;;;;;;3.50;1.52;;;18.30;51.60;;;;;;4971691;28;20501;-70
2023/05/03 09:52:10;;;;;;;5.05;1.50;;;18.20;50.20;;;;;;4969206;28;20038;-70
2023/05/03 09:54:36;;;;;;;4.07;1.48;;;18.10;51.70;;;;;;4966834;28;20610;-70
2023/05/03 09:57:04;;;;;;;5.70;1.98;;;18.20;52.30;;;;;;4971234;28;20749;-70
2023/05/03 09:59:36;;;;;;;3.28;1.38;;;18.20;50.20;;;;;;4964345;28;20037;-70
2023/05/03 10:02:04;;;;;;;6.93;1.58;;;18.40;51.60;;;;;;4966416;28;20121;-70
2023/05/03 10:04:46;;;;;;;5.60;1.48;;;18.50;50.90;;;;;;4969692;28;20498;-70
2023/05/03 10:07:16;;;;;;;2.22;1.23;;;18.70;52.00;;;;;;4965944;28;20824;-70
2023/05/03 10:09:46;;;;;;;7.30;1.90;;;18.70;49.70;;;;;;4966464;28;20031;-68
2023/05/03 10:12:15;;;;;;;4.55;1.58;;;18.60;50.70;;;;;;4960730;28;20443;-71
2023/05/03 10:14:44;;;;;;;6.13;1.40;;;18.60;49.80;;;;;;4966527;28;20486;-71
2023/05/03 10:17:26;;;;;;;6.53;1.48;;;18.80;51.30;;;;;;4960677;28;20035;-70
2023/05/03 10:20:27;;;;;;;5.80;1.60;;;19.10;48.60;;;;;;4963446;28;20030;-68
2023/05/03 10:23:06;;;;;;;6.00;1.30;;;19.50;48.40;;;;;;4964251;28;20518;-70
2023/05/03 10:25:35;;;;;;;6.68;1.40;;;19.60;48.90;;;;;;4968122;28;20293;-71
2023/05/03 10:28:02;;;;;;;3.85;1.20;;;19.50;47.70;;;;;;4965398;28;20033;-69
2023/05/03 10:30:33;;;;;;;5.45;1.58;;;19.40;49.00;;;;;;4969103;28;20030;-71
2023/05/03 10:33:19;;;;;;;5.38;1.35;;;19.00;49.00;;;;;;4962311;28;20036;-70
2023/05/03 10:35:53;;;;;;;3.58;1.17;;;18.60;47.90;;;;;;4960151;28;20046;-70
2023/05/03 10:38:23;;;;;;;7.03;1.60;;;18.30;48.60;;;;;;4962146;28;20039;-70
2023/05/03 10:40:49;;;;;;;2.47;1.23;;;18.40;49.70;;;;;;4959268;28;20039;-70
2023/05/03 10:43:33;;;;;;;6.05;1.35;;;18.50;49.60;;;;;;4960667;28;20038;-70
2023/05/03 10:45:59;;;;;;;4.20;1.23;;;18.50;49.00;;;;;;4955217;28;20114;-70
2023/05/03 10:48:27;;;;;;;1.88;1.30;;;18.20;49.20;;;;;;4960855;28;20039;-68
2023/05/03 10:50:54;;;;;;;6.53;1.58;;;17.90;51.10;;;;;;4964663;28;20116;-70
2023/05/03 10:53:38;;;;;;;2.35;1.52;;;17.80;52.40;;;;;;4962819;28;20062;-71
2023/05/03 10:56:11;;;;;;;6.05;1.67;;;18.20;53.30;;;;;;4964177;28;20043;-70
2023/05/03 10:58:43;;;;;;;7.38;1.98;;;18.60;49.60;;;;;;4960229;28;20292;-70
2023/05/03 11:01:11;;;;;;;4.53;1.60;;;18.40;49.90;;;;;;4964952;28;20034;-71
2023/05/03 11:04:01;;;;;;;5.65;1.70;;;17.90;52.40;;;;;;4962436;28;20022;-70
2023/05/03 11:06:36;;;;;;;3.03;1.60;;;17.40;53.20;;;;;;4956494;28;20031;-70
2023/05/03 11:09:05;;;;;;;3.63;1.50;;;17.10;54.00;;;;;;4962085;28;20956;-71
2023/05/03 11:11:31;;;;;;;3.25;1.63;;;17.00;54.10;;;;;;4963996;28;20041;-70
2023/05/03 11:13:57;;;;;;;3.95;1.65;;;17.00;53.10;;;;;;4960238;28;20041;-70
2023/05/03 11:16:23;;;;;;;5.80;1.40;;;17.00;52.80;;;;;;4969736;28;20045;-70
2023/05/03 11:18:50;;;;;;;3.83;1.45;;;17.00;53.00;;;;;;4968475;28;20137;-70
2023/05/03 11:21:16;;;;;;;5.80;1.20;;;17.10;53.80;;;;;;4964137;28;20042;-71
2023/05/03 11:23:43;;;;;;;3.50;1.40;;;17.20;53.70;;;;;;4969163;28;20034;-70
2023/05/03 11:26:09;;;;;;;8.05;1.70;;;17.20;52.00;;;;;;4966792;28;20030;-71
2023/05/03 11:28:42;;;;;;;3.83;1.48;;;17.10;54.30;;;;;;4966772;28;20023;-69
2023/05/03 11:31:09;;;;;;;5.03;1.60;;;17.10;54.50;;;;;;4964356;28;20084;-70
2023/05/03 11:33:37;;;;;;;7.30;1.17;;;17.10;52.40;;;;;;4971298;28;20117;-70
2023/05/03 11:36:08;;;;;;;2.13;1.65;;;16.90;50.70;;;;;;4972609;28;20034;-70
2023/05/03 11:38:38;;;;;;;6.65;1.70;;;16.80;53.20;;;;;;4967991;28;20489;-70
2023/05/03 11:41:13;;;;;;;5.20;1.33;;;16.70;53.00;;;;;;4967272;28;20034;-70
2023/05/03 11:43:46;;;;;;;7.45;1.75;;;16.50;54.20;;;;;;4970911;28;20556;-70
2023/05/03 11:46:20;;;;;;;5.82;1.60;;;16.50;54.80;;;;;;4964237;28;20608;-70
2023/05/03 11:48:46;;;;;;;3.58;1.40;;;16.50;53.80;;;;;;4964912;28;20540;-70
2023/05/03 11:51:12;;;;;;;3.15;1.17;;;16.40;52.00;;;;;;4963796;28;20153;-70
2023/05/03 11:53:40;;;;;;;7.38;1.80;;;16.40;51.30;;;;;;4970638;28;20206;-71
2023/05/03 11:56:08;;;;;;;6.00;1.88;;;16.50;55.80;;;;;;4967343;28;20065;-70
2023/05/03 11:58:34;;;;;;;8.77;1.40;;;16.50;56.70;;;;;;4967283;28;20062;-70
2023/05/03 12:01:00;;;;;;;5.32;1.80;;;16.50;56.30;;;;;;4972231;28;20030;-70
2023/05/03 12:03:28;;;;;;;7.22;1.88;;;16.50;56.30;;;;;;4972983;28;20028;-70
2023/05/03 12:05:55;;;;;;;3.90;1.63;;;16.40;55.70;;;;;;4970887;28;20509;-70
2023/05/03 12:08:27;;;;;;;4.70;1.95;;;16.50;56.20;;;;;;4969448;28;20039;-70
2023/05/03 12:10:53;;;;;;;5.72;1.25;;;16.50;52.50;;;;;;4968669;28;20038;-70
2023/05/03 12:13:36;;;;;;;6.30;1.70;;;16.50;54.20;;;;;;4968429;28;20774;-70
2023/05/03 12:16:03;;;;;;;3.50;1.40;;;16.40;52.60;;;;;;4953851;28;20034;-70
2023/05/03 12:18:50;;;;;;;4.88;1.73;;;16.20;53.20;;;;;;4970621;28;20096;-70
2023/05/03 12:21:20;;;;;;;6.05;1.88;;;16.00;55.80;;;;;;4962487;28;20022;-70
2023/05/03 12:23:48;;;;;;;9.75;1.75;;;15.90;55.60;;;;;;4973648;28;20034;-70
2023/05/03 12:26:15;;;;;;;3.38;1.55;;;16.00;57.00;;;;;;4964229;28;20023;-71
2023/05/03 12:28:41;;;;;;;7.03;1.73;;;16.10;56.30;;;;;;4969267;28;20045;-69
2023/05/03 12:31:07;;;;;;;4.25;1.50;;;16.10;56.10;;;;;;4970816;28;20069;-70
2023/05/03 12:33:33;;;;;;;4.38;1.63;;;16.20;55.10;;;;;;4966456;28;20030;-70
2023/05/03 12:35:59;;;;;;;4.75;1.40;;;16.20;54.20;;;;;;4970740;28;20046;-70
2023/05/03 12:38:24;;;;;;;4.43;1.48;;;16.30;53.30;;;;;;4965408;28;20121;-70
2023/05/03 12:40:51;;;;;;;6.28;1.33;;;16.40;53.40;;;;;;4967839;28;20529;-70
2023/05/03 12:43:17;;;;;;;4.90;1.17;;;16.40;52.70;;;;;;4965696;28;20535;-70
2023/05/03 12:45:43;;;;;;;6.38;1.40;;;16.40;53.20;;;;;;4968984;28;20113;-70
2023/05/03 12:48:09;;;;;;;6.20;1.55;;;16.40;52.70;;;;;;4966163;28;20045;-70
2023/05/03 12:50:35;;;;;;;4.60;1.42;;;16.40;52.70;;;;;;4962200;28;20927;-70
2023/05/03 12:53:01;;;;;;;5.18;1.80;;;16.40;53.20;;;;;;4970873;28;20042;-71
2023/05/03 12:55:26;;;;;;;3.55;1.50;;;16.40;51.70;;;;;;4969021;28;20023;-71